Pagrindinis puslapis
METAR-TAF:

METAR-TAF

Oro uostai :

Orhusas, Danija

platuma: 56-18N, ilguma: 010-37E, Aukštis: 23 m

Dabartinis oras

Ataskaita buvo paskelbta 10 minutes, ne 04:20 UTC
Vėjas 6 kt iš Vakarų/Pietvakarių
Temperatūra 7°C
Drėgmė 93%
Slėgis 1025 hPa
Matomumas 10 km arba daugiau

METAR: EKAH 070420Z AUTO 25006KT 9999NDV FEW075/// 07/06 Q1025

Laikas: 06:30 (04:30 UTC)


TAF: trūkstamas

Orai ataskaitas ir orų prognozės (METAR, TAF).

turimą stotys yra geltonos ir raudonos taškus žemėlapyje.

Perkelti pele per norėdami pamatyti stoties vardą.

Tada spustelėkite, norėdami matyti oro stebėjimo ir prognozės.

Norėdami pakeisti žemėlapį: spustelėkite ant žalios mygtukų su juodo kryžiaus žemyn,; žalią mygtuką su brūkšneliu, jei norite nutolinti; arba žalių rodyklių gretimoms žemėlapius.


METAR-TAF: